sensor_id;sensor_type;location;lat;lon;timestamp;P1;durP1;ratioP1;P2;durP2;ratioP2
50092;SDS011;35974;47.752;10.290;2022-12-13T00:01:21;17.88;;;7.35;;
50092;SDS011;35974;47.752;10.290;2022-12-13T00:03:51;19.70;;;7.30;;
50092;SDS011;35974;47.752;10.290;2022-12-13T00:06:21;18.55;;;6.43;;
50092;SDS011;35974;47.752;10.290;2022-12-13T00:08:48;16.90;;;6.72;;
50092;SDS011;35974;47.752;10.290;2022-12-13T00:11:15;16.33;;;6.60;;
50092;SDS011;35974;47.752;10.290;2022-12-13T00:13:42;15.52;;;6.30;;
50092;SDS011;35974;47.752;10.290;2022-12-13T00:16:10;11.52;;;5.95;;
50092;SDS011;35974;47.752;10.290;2022-12-13T00:18:37;16.25;;;6.50;;
50092;SDS011;35974;47.752;10.290;2022-12-13T00:21:05;15.40;;;6.63;;
50092;SDS011;35974;47.752;10.290;2022-12-13T00:23:33;17.50;;;6.85;;
50092;SDS011;35974;47.752;10.290;2022-12-13T00:26:12;21.23;;;7.38;;
50092;SDS011;35974;47.752;10.290;2022-12-13T00:28:40;24.20;;;7.72;;
50092;SDS011;35974;47.752;10.290;2022-12-13T00:31:07;21.20;;;7.70;;
50092;SDS011;35974;47.752;10.290;2022-12-13T00:33:54;18.90;;;7.25;;
50092;SDS011;35974;47.752;10.290;2022-12-13T00:36:21;22.15;;;8.10;;
50092;SDS011;35974;47.752;10.290;2022-12-13T00:38:47;19.40;;;7.95;;
50092;SDS011;35974;47.752;10.290;2022-12-13T00:41:26;20.75;;;8.35;;
50092;SDS011;35974;47.752;10.290;2022-12-13T00:43:55;21.15;;;7.85;;
50092;SDS011;35974;47.752;10.290;2022-12-13T00:46:22;19.33;;;7.22;;
50092;SDS011;35974;47.752;10.290;2022-12-13T00:48:49;19.67;;;7.32;;
50092;SDS011;35974;47.752;10.290;2022-12-13T00:51:18;16.63;;;7.70;;
50092;SDS011;35974;47.752;10.290;2022-12-13T00:53:45;18.80;;;6.88;;
50092;SDS011;35974;47.752;10.290;2022-12-13T00:56:13;17.20;;;7.18;;
50092;SDS011;35974;47.752;10.290;2022-12-13T00:58:42;20.00;;;7.38;;
50092;SDS011;35974;47.752;10.290;2022-12-13T01:01:17;10.40;;;4.05;;
50092;SDS011;35974;47.752;10.290;2022-12-13T01:03:46;19.27;;;6.20;;
50092;SDS011;35974;47.752;10.290;2022-12-13T01:08:42;14.00;;;5.68;;
50092;SDS011;35974;47.752;10.290;2022-12-13T01:11:09;17.08;;;6.00;;
50092;SDS011;35974;47.752;10.290;2022-12-13T01:13:36;12.55;;;5.60;;
50092;SDS011;35974;47.752;10.290;2022-12-13T01:16:04;15.63;;;5.63;;
50092;SDS011;35974;47.752;10.290;2022-12-13T01:18:31;14.93;;;5.88;;
50092;SDS011;35974;47.752;10.290;2022-12-13T01:24:00;15.95;;;5.88;;
50092;SDS011;35974;47.752;10.290;2022-12-13T01:26:30;12.93;;;5.20;;
50092;SDS011;35974;47.752;10.290;2022-12-13T01:28:57;11.00;;;5.05;;
50092;SDS011;35974;47.752;10.290;2022-12-13T01:31:24;10.38;;;4.85;;
50092;SDS011;35974;47.752;10.290;2022-12-13T01:33:51;12.38;;;4.88;;
50092;SDS011;35974;47.752;10.290;2022-12-13T01:36:25;12.63;;;4.70;;
50092;SDS011;35974;47.752;10.290;2022-12-13T01:38:53;12.10;;;5.13;;
50092;SDS011;35974;47.752;10.290;2022-12-13T01:41:23;8.85;;;4.40;;
50092;SDS011;35974;47.752;10.290;2022-12-13T01:43:54;13.02;;;4.15;;
50092;SDS011;35974;47.752;10.290;2022-12-13T01:46:31;9.18;;;4.13;;
50092;SDS011;35974;47.752;10.290;2022-12-13T01:49:04;10.02;;;4.30;;
50092;SDS011;35974;47.752;10.290;2022-12-13T01:51:53;8.93;;;3.67;;
50092;SDS011;35974;47.752;10.290;2022-12-13T01:54:27;11.32;;;4.13;;
50092;SDS011;35974;47.752;10.290;2022-12-13T01:57:01;10.90;;;3.55;;
50092;SDS011;35974;47.752;10.290;2022-12-13T01:59:32;9.55;;;3.40;;
50092;SDS011;35974;47.752;10.290;2022-12-13T02:02:02;9.82;;;3.40;;
50092;SDS011;35974;47.752;10.290;2022-12-13T02:04:30;7.07;;;3.00;;
50092;SDS011;35974;47.752;10.290;2022-12-13T02:07:10;6.65;;;3.03;;
50092;SDS011;35974;47.752;10.290;2022-12-13T02:09:48;6.43;;;2.60;;
50092;SDS011;35974;47.752;10.290;2022-12-13T02:12:22;6.90;;;2.63;;
50092;SDS011;35974;47.752;10.290;2022-12-13T02:14:55;5.82;;;2.30;;
50092;SDS011;35974;47.752;10.290;2022-12-13T02:17:45;5.75;;;2.38;;
50092;SDS011;35974;47.752;10.290;2022-12-13T02:25:50;5.85;;;2.05;;
50092;SDS011;35974;47.752;10.290;2022-12-13T02:31:10;5.97;;;1.67;;
50092;SDS011;35974;47.752;10.290;2022-12-13T02:36:43;5.63;;;2.33;;
50092;SDS011;35974;47.752;10.290;2022-12-13T02:39:24;4.80;;;1.80;;
50092;SDS011;35974;47.752;10.290;2022-12-13T02:41:57;4.93;;;1.73;;
50092;SDS011;35974;47.752;10.290;2022-12-13T02:44:29;5.03;;;2.05;;
50092;SDS011;35974;47.752;10.290;2022-12-13T02:46:59;5.38;;;1.80;;
50092;SDS011;35974;47.752;10.290;2022-12-13T02:49:38;3.75;;;2.10;;
50092;SDS011;35974;47.752;10.290;2022-12-13T02:52:12;5.13;;;2.30;;
50092;SDS011;35974;47.752;10.290;2022-12-13T02:54:47;5.68;;;2.03;;
50092;SDS011;35974;47.752;10.290;2022-12-13T02:57:28;5.10;;;2.10;;
50092;SDS011;35974;47.752;10.290;2022-12-13T02:59:55;4.70;;;2.00;;
50092;SDS011;35974;47.752;10.290;2022-12-13T03:02:29;4.35;;;1.90;;
50092;SDS011;35974;47.752;10.290;2022-12-13T03:05:15;3.90;;;1.67;;
50092;SDS011;35974;47.752;10.290;2022-12-13T03:10:42;6.70;;;2.00;;
50092;SDS011;35974;47.752;10.290;2022-12-13T03:13:20;3.22;;;1.90;;
50092;SDS011;35974;47.752;10.290;2022-12-13T03:16:22;3.85;;;1.70;;
50092;SDS011;35974;47.752;10.290;2022-12-13T03:18:51;4.88;;;1.80;;
50092;SDS011;35974;47.752;10.290;2022-12-13T03:21:20;3.50;;;1.63;;
50092;SDS011;35974;47.752;10.290;2022-12-13T03:23:47;4.18;;;1.80;;
50092;SDS011;35974;47.752;10.290;2022-12-13T03:26:14;4.82;;;1.52;;
50092;SDS011;35974;47.752;10.290;2022-12-13T03:28:55;4.95;;;1.88;;
50092;SDS011;35974;47.752;10.290;2022-12-13T03:31:22;4.45;;;1.48;;
50092;SDS011;35974;47.752;10.290;2022-12-13T03:33:48;4.93;;;2.05;;
50092;SDS011;35974;47.752;10.290;2022-12-13T03:36:15;4.20;;;1.70;;
50092;SDS011;35974;47.752;10.290;2022-12-13T03:38:44;5.18;;;2.53;;
50092;SDS011;35974;47.752;10.290;2022-12-13T03:41:13;8.35;;;3.47;;
50092;SDS011;35974;47.752;10.290;2022-12-13T03:43:42;7.60;;;3.42;;
50092;SDS011;35974;47.752;10.290;2022-12-13T03:46:09;5.90;;;3.05;;
50092;SDS011;35974;47.752;10.290;2022-12-13T03:48:36;7.78;;;3.20;;
50092;SDS011;35974;47.752;10.290;2022-12-13T03:51:03;8.93;;;3.30;;
50092;SDS011;35974;47.752;10.290;2022-12-13T03:53:30;8.77;;;3.78;;
50092;SDS011;35974;47.752;10.290;2022-12-13T03:56:00;10.10;;;3.88;;
50092;SDS011;35974;47.752;10.290;2022-12-13T03:58:29;12.98;;;4.45;;
50092;SDS011;35974;47.752;10.290;2022-12-13T04:01:03;6.68;;;3.33;;
50092;SDS011;35974;47.752;10.290;2022-12-13T04:03:34;7.30;;;3.08;;
50092;SDS011;35974;47.752;10.290;2022-12-13T04:06:02;9.40;;;2.70;;
50092;SDS011;35974;47.752;10.290;2022-12-13T04:08:29;8.27;;;2.50;;
50092;SDS011;35974;47.752;10.290;2022-12-13T04:10:55;10.40;;;2.80;;
50092;SDS011;35974;47.752;10.290;2022-12-13T04:13:22;7.13;;;2.45;;
50092;SDS011;35974;47.752;10.290;2022-12-13T04:18:24;8.20;;;2.90;;
50092;SDS011;35974;47.752;10.290;2022-12-13T04:20:50;4.68;;;2.35;;
50092;SDS011;35974;47.752;10.290;2022-12-13T04:23:33;5.50;;;2.60;;
50092;SDS011;35974;47.752;10.290;2022-12-13T04:25:59;8.18;;;2.20;;
50092;SDS011;35974;47.752;10.290;2022-12-13T04:28:26;4.75;;;2.10;;
50092;SDS011;35974;47.752;10.290;2022-12-13T04:30:53;5.63;;;2.22;;
50092;SDS011;35974;47.752;10.290;2022-12-13T04:33:20;4.57;;;2.15;;
50092;SDS011;35974;47.752;10.290;2022-12-13T04:35:47;5.30;;;1.92;;
50092;SDS011;35974;47.752;10.290;2022-12-13T04:38:14;5.57;;;2.25;;
50092;SDS011;35974;47.752;10.290;2022-12-13T04:40:41;10.35;;;2.65;;
50092;SDS011;35974;47.752;10.290;2022-12-13T04:43:08;5.88;;;2.60;;
50092;SDS011;35974;47.752;10.290;2022-12-13T04:45:34;8.25;;;3.35;;
50092;SDS011;35974;47.752;10.290;2022-12-13T04:48:01;7.75;;;3.20;;
50092;SDS011;35974;47.752;10.290;2022-12-13T04:50:27;10.88;;;3.90;;
50092;SDS011;35974;47.752;10.290;2022-12-13T04:52:54;8.50;;;3.47;;
50092;SDS011;35974;47.752;10.290;2022-12-13T04:55:20;8.32;;;3.25;;
50092;SDS011;35974;47.752;10.290;2022-12-13T04:57:47;11.10;;;3.38;;
50092;SDS011;35974;47.752;10.290;2022-12-13T05:00:13;8.95;;;3.05;;
50092;SDS011;35974;47.752;10.290;2022-12-13T05:02:40;8.40;;;3.53;;
50092;SDS011;35974;47.752;10.290;2022-12-13T05:05:10;7.50;;;3.58;;
50092;SDS011;35974;47.752;10.290;2022-12-13T05:07:39;8.50;;;3.70;;
50092;SDS011;35974;47.752;10.290;2022-12-13T05:10:09;14.48;;;3.80;;
50092;SDS011;35974;47.752;10.290;2022-12-13T05:12:48;7.97;;;3.75;;
50092;SDS011;35974;47.752;10.290;2022-12-13T05:18:03;9.13;;;3.40;;
50092;SDS011;35974;47.752;10.290;2022-12-13T05:20:36;11.48;;;4.07;;
50092;SDS011;35974;47.752;10.290;2022-12-13T05:23:04;8.15;;;3.67;;
50092;SDS011;35974;47.752;10.290;2022-12-13T05:25:31;9.07;;;3.35;;
50092;SDS011;35974;47.752;10.290;2022-12-13T05:28:00;12.75;;;3.25;;
50092;SDS011;35974;47.752;10.290;2022-12-13T05:30:36;9.60;;;3.88;;
50092;SDS011;35974;47.752;10.290;2022-12-13T05:33:09;10.40;;;4.30;;
50092;SDS011;35974;47.752;10.290;2022-12-13T05:35:36;7.97;;;3.65;;
50092;SDS011;35974;47.752;10.290;2022-12-13T05:38:18;9.40;;;3.80;;
50092;SDS011;35974;47.752;10.290;2022-12-13T05:43:40;8.05;;;3.47;;
50092;SDS011;35974;47.752;10.290;2022-12-13T05:49:07;10.10;;;3.33;;
50092;SDS011;35974;47.752;10.290;2022-12-13T05:51:46;10.38;;;3.90;;
50092;SDS011;35974;47.752;10.290;2022-12-13T05:54:13;7.65;;;3.20;;
50092;SDS011;35974;47.752;10.290;2022-12-13T05:56:40;8.88;;;3.20;;
50092;SDS011;35974;47.752;10.290;2022-12-13T05:59:06;8.20;;;3.17;;
50092;SDS011;35974;47.752;10.290;2022-12-13T06:01:33;11.15;;;3.95;;
50092;SDS011;35974;47.752;10.290;2022-12-13T06:04:00;11.32;;;3.97;;
50092;SDS011;35974;47.752;10.290;2022-12-13T06:06:26;11.48;;;3.90;;
50092;SDS011;35974;47.752;10.290;2022-12-13T06:08:53;9.30;;;3.67;;
50092;SDS011;35974;47.752;10.290;2022-12-13T06:11:28;11.27;;;3.83;;
50092;SDS011;35974;47.752;10.290;2022-12-13T06:13:57;11.85;;;3.67;;
50092;SDS011;35974;47.752;10.290;2022-12-13T06:16:26;9.73;;;4.10;;
50092;SDS011;35974;47.752;10.290;2022-12-13T06:18:56;9.00;;;3.38;;
50092;SDS011;35974;47.752;10.290;2022-12-13T06:21:30;12.55;;;4.90;;
50092;SDS011;35974;47.752;10.290;2022-12-13T06:24:08;13.35;;;4.72;;
50092;SDS011;35974;47.752;10.290;2022-12-13T06:26:35;13.65;;;4.93;;
50092;SDS011;35974;47.752;10.290;2022-12-13T06:29:01;16.95;;;5.55;;
50092;SDS011;35974;47.752;10.290;2022-12-13T06:31:28;15.25;;;4.78;;
50092;SDS011;35974;47.752;10.290;2022-12-13T06:33:54;19.23;;;5.25;;
50092;SDS011;35974;47.752;10.290;2022-12-13T06:36:21;12.23;;;4.47;;
50092;SDS011;35974;47.752;10.290;2022-12-13T06:38:47;12.73;;;5.60;;
50092;SDS011;35974;47.752;10.290;2022-12-13T06:41:14;11.68;;;4.07;;
50092;SDS011;35974;47.752;10.290;2022-12-13T06:43:43;17.65;;;5.05;;
50092;SDS011;35974;47.752;10.290;2022-12-13T06:46:10;12.13;;;4.65;;
50092;SDS011;35974;47.752;10.290;2022-12-13T06:48:37;15.55;;;5.20;;
50092;SDS011;35974;47.752;10.290;2022-12-13T06:51:06;13.13;;;4.97;;
50092;SDS011;35974;47.752;10.290;2022-12-13T06:53:34;14.45;;;5.85;;
50092;SDS011;35974;47.752;10.290;2022-12-13T06:56:03;18.60;;;6.07;;
50092;SDS011;35974;47.752;10.290;2022-12-13T06:58:32;15.15;;;5.60;;
50092;SDS011;35974;47.752;10.290;2022-12-13T07:01:00;16.67;;;5.28;;
50092;SDS011;35974;47.752;10.290;2022-12-13T07:03:29;14.50;;;5.95;;
50092;SDS011;35974;47.752;10.290;2022-12-13T07:06:02;25.05;;;9.20;;
50092;SDS011;35974;47.752;10.290;2022-12-13T07:08:31;19.50;;;8.63;;
50092;SDS011;35974;47.752;10.290;2022-12-13T07:11:00;21.30;;;9.57;;
50092;SDS011;35974;47.752;10.290;2022-12-13T07:13:27;25.25;;;9.45;;
50092;SDS011;35974;47.752;10.290;2022-12-13T07:15:56;32.63;;;8.70;;
50092;SDS011;35974;47.752;10.290;2022-12-13T07:18:26;35.85;;;11.98;;
50092;SDS011;35974;47.752;10.290;2022-12-13T07:20:52;23.60;;;8.55;;
50092;SDS011;35974;47.752;10.290;2022-12-13T07:23:19;15.20;;;6.05;;
50092;SDS011;35974;47.752;10.290;2022-12-13T07:25:50;14.75;;;5.78;;
50092;SDS011;35974;47.752;10.290;2022-12-13T07:28:18;10.88;;;5.00;;
50092;SDS011;35974;47.752;10.290;2022-12-13T07:30:45;10.82;;;4.43;;
50092;SDS011;35974;47.752;10.290;2022-12-13T07:33:13;12.63;;;4.75;;
50092;SDS011;35974;47.752;10.290;2022-12-13T07:35:47;6.22;;;3.17;;
50092;SDS011;35974;47.752;10.290;2022-12-13T07:38:20;14.95;;;5.53;;
50092;SDS011;35974;47.752;10.290;2022-12-13T07:40:47;40.85;;;12.55;;
50092;SDS011;35974;47.752;10.290;2022-12-13T07:43:15;43.70;;;13.23;;
50092;SDS011;35974;47.752;10.290;2022-12-13T07:45:42;42.13;;;12.00;;
50092;SDS011;35974;47.752;10.290;2022-12-13T07:48:09;41.33;;;12.07;;
50092;SDS011;35974;47.752;10.290;2022-12-13T07:50:35;26.00;;;9.30;;
50092;SDS011;35974;47.752;10.290;2022-12-13T07:53:04;21.33;;;9.07;;
50092;SDS011;35974;47.752;10.290;2022-12-13T07:55:32;22.90;;;8.32;;
50092;SDS011;35974;47.752;10.290;2022-12-13T07:58:09;28.42;;;9.75;;
50092;SDS011;35974;47.752;10.290;2022-12-13T08:00:38;26.30;;;9.25;;
50092;SDS011;35974;47.752;10.290;2022-12-13T08:03:12;21.55;;;8.60;;
50092;SDS011;35974;47.752;10.290;2022-12-13T08:06:04;24.50;;;8.30;;
50092;SDS011;35974;47.752;10.290;2022-12-13T08:08:35;26.27;;;10.35;;
50092;SDS011;35974;47.752;10.290;2022-12-13T08:11:04;34.38;;;14.63;;
50092;SDS011;35974;47.752;10.290;2022-12-13T08:13:35;30.08;;;12.82;;
50092;SDS011;35974;47.752;10.290;2022-12-13T08:16:06;55.45;;;21.20;;
50092;SDS011;35974;47.752;10.290;2022-12-13T08:18:52;67.95;;;26.77;;
50092;SDS011;35974;47.752;10.290;2022-12-13T08:21:28;47.55;;;19.88;;
50092;SDS011;35974;47.752;10.290;2022-12-13T08:24:18;51.85;;;21.55;;
50092;SDS011;35974;47.752;10.290;2022-12-13T08:26:45;32.15;;;13.60;;
50092;SDS011;35974;47.752;10.290;2022-12-13T08:29:11;35.33;;;13.93;;
50092;SDS011;35974;47.752;10.290;2022-12-13T08:31:48;20.27;;;9.30;;
50092;SDS011;35974;47.752;10.290;2022-12-13T08:34:15;19.92;;;7.50;;
50092;SDS011;35974;47.752;10.290;2022-12-13T08:36:41;14.02;;;6.50;;
50092;SDS011;35974;47.752;10.290;2022-12-13T08:39:08;15.38;;;6.47;;
50092;SDS011;35974;47.752;10.290;2022-12-13T08:41:34;16.08;;;6.80;;
50092;SDS011;35974;47.752;10.290;2022-12-13T08:44:04;17.13;;;6.80;;
50092;SDS011;35974;47.752;10.290;2022-12-13T08:46:31;16.48;;;7.32;;
50092;SDS011;35974;47.752;10.290;2022-12-13T08:48:59;15.45;;;6.72;;
50092;SDS011;35974;47.752;10.290;2022-12-13T08:51:25;17.55;;;7.75;;
50092;SDS011;35974;47.752;10.290;2022-12-13T08:54:00;17.27;;;8.02;;
50092;SDS011;35974;47.752;10.290;2022-12-13T08:56:36;13.98;;;6.88;;
50092;SDS011;35974;47.752;10.290;2022-12-13T08:59:03;20.42;;;7.43;;
50092;SDS011;35974;47.752;10.290;2022-12-13T09:01:30;13.27;;;6.63;;
50092;SDS011;35974;47.752;10.290;2022-12-13T09:03:56;10.98;;;6.35;;
50092;SDS011;35974;47.752;10.290;2022-12-13T09:06:23;10.50;;;5.43;;
50092;SDS011;35974;47.752;10.290;2022-12-13T09:08:51;22.70;;;8.90;;
50092;SDS011;35974;47.752;10.290;2022-12-13T09:11:18;14.45;;;6.55;;
50092;SDS011;35974;47.752;10.290;2022-12-13T09:13:50;9.73;;;4.88;;
50092;SDS011;35974;47.752;10.290;2022-12-13T09:16:18;10.85;;;5.43;;
50092;SDS011;35974;47.752;10.290;2022-12-13T09:18:50;25.58;;;5.53;;
50092;SDS011;35974;47.752;10.290;2022-12-13T09:21:20;19.63;;;7.18;;
50092;SDS011;35974;47.752;10.290;2022-12-13T09:23:57;12.90;;;6.20;;
50092;SDS011;35974;47.752;10.290;2022-12-13T09:26:27;12.32;;;6.13;;
50092;SDS011;35974;47.752;10.290;2022-12-13T09:29:03;13.55;;;5.90;;
50092;SDS011;35974;47.752;10.290;2022-12-13T09:31:36;11.70;;;5.50;;
50092;SDS011;35974;47.752;10.290;2022-12-13T09:34:05;11.05;;;5.45;;
50092;SDS011;35974;47.752;10.290;2022-12-13T09:36:32;10.73;;;5.18;;
50092;SDS011;35974;47.752;10.290;2022-12-13T09:38:58;8.80;;;5.05;;
50092;SDS011;35974;47.752;10.290;2022-12-13T09:41:31;10.38;;;4.93;;
50092;SDS011;35974;47.752;10.290;2022-12-13T09:44:09;9.80;;;4.72;;
50092;SDS011;35974;47.752;10.290;2022-12-13T09:46:56;7.88;;;4.70;;
50092;SDS011;35974;47.752;10.290;2022-12-13T09:49:31;10.40;;;4.75;;
50092;SDS011;35974;47.752;10.290;2022-12-13T09:52:02;9.10;;;4.80;;
50092;SDS011;35974;47.752;10.290;2022-12-13T09:54:37;10.88;;;5.18;;
50092;SDS011;35974;47.752;10.290;2022-12-13T09:57:15;9.93;;;4.90;;
50092;SDS011;35974;47.752;10.290;2022-12-13T09:59:59;8.50;;;4.72;;
50092;SDS011;35974;47.752;10.290;2022-12-13T10:02:28;10.38;;;4.65;;
50092;SDS011;35974;47.752;10.290;2022-12-13T10:08:14;9.85;;;4.20;;
50092;SDS011;35974;47.752;10.290;2022-12-13T10:10:42;9.23;;;3.90;;
50092;SDS011;35974;47.752;10.290;2022-12-13T10:15:42;7.30;;;3.92;;
50092;SDS011;35974;47.752;10.290;2022-12-13T10:18:13;6.78;;;4.05;;
50092;SDS011;35974;47.752;10.290;2022-12-13T10:20:49;13.10;;;4.15;;
50092;SDS011;35974;47.752;10.290;2022-12-13T10:23:18;10.43;;;4.85;;
50092;SDS011;35974;47.752;10.290;2022-12-13T10:26:11;12.15;;;5.30;;
50092;SDS011;35974;47.752;10.290;2022-12-13T10:28:49;11.18;;;5.22;;
50092;SDS011;35974;47.752;10.290;2022-12-13T10:31:18;10.05;;;4.85;;
50092;SDS011;35974;47.752;10.290;2022-12-13T10:33:53;14.43;;;5.97;;
50092;SDS011;35974;47.752;10.290;2022-12-13T10:39:03;11.32;;;4.50;;
50092;SDS011;35974;47.752;10.290;2022-12-13T10:44:22;18.83;;;5.07;;
50092;SDS011;35974;47.752;10.290;2022-12-13T10:49:38;12.52;;;4.50;;
50092;SDS011;35974;47.752;10.290;2022-12-13T10:52:23;12.52;;;5.20;;
50092;SDS011;35974;47.752;10.290;2022-12-13T10:54:59;7.85;;;3.80;;
50092;SDS011;35974;47.752;10.290;2022-12-13T10:57:52;12.15;;;4.20;;
50092;SDS011;35974;47.752;10.290;2022-12-13T11:00:32;8.18;;;3.70;;
50092;SDS011;35974;47.752;10.290;2022-12-13T11:03:02;11.20;;;4.35;;
50092;SDS011;35974;47.752;10.290;2022-12-13T11:05:30;9.52;;;4.38;;
50092;SDS011;35974;47.752;10.290;2022-12-13T11:08:12;12.43;;;4.20;;
50092;SDS011;35974;47.752;10.290;2022-12-13T11:10:39;14.82;;;5.20;;
50092;SDS011;35974;47.752;10.290;2022-12-13T11:13:06;12.02;;;4.25;;
50092;SDS011;35974;47.752;10.290;2022-12-13T11:15:33;10.18;;;4.35;;
50092;SDS011;35974;47.752;10.290;2022-12-13T11:18:17;23.23;;;7.30;;
50092;SDS011;35974;47.752;10.290;2022-12-13T11:21:01;16.87;;;5.20;;
50092;SDS011;35974;47.752;10.290;2022-12-13T11:23:33;11.52;;;4.45;;
50092;SDS011;35974;47.752;10.290;2022-12-13T11:26:10;17.15;;;6.90;;
50092;SDS011;35974;47.752;10.290;2022-12-13T11:31:50;13.65;;;4.05;;
50092;SDS011;35974;47.752;10.290;2022-12-13T11:40:33;9.32;;;3.83;;
50092;SDS011;35974;47.752;10.290;2022-12-13T11:45:47;37.63;;;12.15;;
50092;SDS011;35974;47.752;10.290;2022-12-13T11:48:23;25.83;;;9.02;;
50092;SDS011;35974;47.752;10.290;2022-12-13T11:51:04;9.88;;;4.47;;
50092;SDS011;35974;47.752;10.290;2022-12-13T11:56:17;11.63;;;3.78;;
50092;SDS011;35974;47.752;10.290;2022-12-13T12:01:50;10.93;;;4.20;;
50092;SDS011;35974;47.752;10.290;2022-12-13T12:04:29;12.27;;;4.13;;
50092;SDS011;35974;47.752;10.290;2022-12-13T12:07:10;21.30;;;4.70;;
50092;SDS011;35974;47.752;10.290;2022-12-13T12:10:02;7.03;;;3.58;;
50092;SDS011;35974;47.752;10.290;2022-12-13T12:12:47;13.18;;;4.10;;
50092;SDS011;35974;47.752;10.290;2022-12-13T12:17:53;13.07;;;4.70;;
50092;SDS011;35974;47.752;10.290;2022-12-13T12:28:27;14.52;;;4.70;;
50092;SDS011;35974;47.752;10.290;2022-12-13T12:33:55;8.93;;;4.57;;
50092;SDS011;35974;47.752;10.290;2022-12-13T12:36:48;9.80;;;4.72;;
50092;SDS011;35974;47.752;10.290;2022-12-13T12:51:27;10.95;;;4.90;;
50092;SDS011;35974;47.752;10.290;2022-12-13T13:00:13;12.35;;;5.07;;
50092;SDS011;35974;47.752;10.290;2022-12-13T13:05:41;10.07;;;4.95;;
50092;SDS011;35974;47.752;10.290;2022-12-13T13:08:22;12.00;;;5.03;;
50092;SDS011;35974;47.752;10.290;2022-12-13T13:10:54;10.80;;;6.03;;
50092;SDS011;35974;47.752;10.290;2022-12-13T13:16:29;13.18;;;6.35;;
50092;SDS011;35974;47.752;10.290;2022-12-13T13:25:28;14.95;;;5.93;;
50092;SDS011;35974;47.752;10.290;2022-12-13T13:33:43;12.57;;;5.80;;
50092;SDS011;35974;47.752;10.290;2022-12-13T13:39:15;15.40;;;5.28;;
50092;SDS011;35974;47.752;10.290;2022-12-13T13:41:53;11.90;;;5.47;;
50092;SDS011;35974;47.752;10.290;2022-12-13T14:02:38;14.57;;;6.80;;
50092;SDS011;35974;47.752;10.290;2022-12-13T14:29:56;16.23;;;6.18;;
50092;SDS011;35974;47.752;10.290;2022-12-13T14:32:28;16.58;;;8.35;;
50092;SDS011;35974;47.752;10.290;2022-12-13T14:34:58;18.13;;;7.30;;
50092;SDS011;35974;47.752;10.290;2022-12-13T14:37:51;17.92;;;7.82;;
50092;SDS011;35974;47.752;10.290;2022-12-13T14:43:22;17.15;;;8.35;;
50092;SDS011;35974;47.752;10.290;2022-12-13T14:48:45;16.50;;;7.63;;
50092;SDS011;35974;47.752;10.290;2022-12-13T14:51:22;27.55;;;9.23;;
50092;SDS011;35974;47.752;10.290;2022-12-13T14:53:55;20.42;;;9.48;;
50092;SDS011;35974;47.752;10.290;2022-12-13T14:56:45;22.00;;;9.25;;
50092;SDS011;35974;47.752;10.290;2022-12-13T14:59:24;17.05;;;8.38;;
50092;SDS011;35974;47.752;10.290;2022-12-13T15:01:54;19.27;;;8.32;;
50092;SDS011;35974;47.752;10.290;2022-12-13T15:04:27;19.08;;;8.65;;
50092;SDS011;35974;47.752;10.290;2022-12-13T15:06:56;19.40;;;8.32;;
50092;SDS011;35974;47.752;10.290;2022-12-13T15:09:39;17.92;;;8.27;;
50092;SDS011;35974;47.752;10.290;2022-12-13T15:12:14;14.95;;;8.00;;
50092;SDS011;35974;47.752;10.290;2022-12-13T15:15:06;21.45;;;8.93;;
50092;SDS011;35974;47.752;10.290;2022-12-13T15:17:43;14.70;;;8.48;;
50092;SDS011;35974;47.752;10.290;2022-12-13T15:20:19;16.88;;;8.43;;
50092;SDS011;35974;47.752;10.290;2022-12-13T15:22:55;18.60;;;8.48;;
50092;SDS011;35974;47.752;10.290;2022-12-13T15:25:35;16.25;;;8.50;;
50092;SDS011;35974;47.752;10.290;2022-12-13T15:28:09;22.55;;;8.98;;
50092;SDS011;35974;47.752;10.290;2022-12-13T15:31:03;19.23;;;9.25;;
50092;SDS011;35974;47.752;10.290;2022-12-13T15:37:03;20.40;;;10.98;;
50092;SDS011;35974;47.752;10.290;2022-12-13T15:39:55;17.20;;;9.50;;
50092;SDS011;35974;47.752;10.290;2022-12-13T15:42:42;15.35;;;9.07;;
50092;SDS011;35974;47.752;10.290;2022-12-13T15:45:24;21.05;;;9.55;;
50092;SDS011;35974;47.752;10.290;2022-12-13T15:48:04;17.23;;;9.68;;
50092;SDS011;35974;47.752;10.290;2022-12-13T15:50:35;23.55;;;9.82;;
50092;SDS011;35974;47.752;10.290;2022-12-13T15:53:26;18.30;;;9.82;;
50092;SDS011;35974;47.752;10.290;2022-12-13T15:55:54;16.20;;;8.88;;
50092;SDS011;35974;47.752;10.290;2022-12-13T15:58:39;18.42;;;9.80;;
50092;SDS011;35974;47.752;10.290;2022-12-13T16:03:55;18.55;;;9.30;;
50092;SDS011;35974;47.752;10.290;2022-12-13T16:06:23;22.50;;;10.18;;
50092;SDS011;35974;47.752;10.290;2022-12-13T16:08:55;20.17;;;10.02;;
50092;SDS011;35974;47.752;10.290;2022-12-13T16:11:29;24.58;;;11.38;;
50092;SDS011;35974;47.752;10.290;2022-12-13T16:19:53;14.52;;;7.57;;
50092;SDS011;35974;47.752;10.290;2022-12-13T16:22:21;17.08;;;9.57;;
50092;SDS011;35974;47.752;10.290;2022-12-13T16:24:51;18.23;;;9.98;;
50092;SDS011;35974;47.752;10.290;2022-12-13T16:27:18;18.48;;;9.77;;
50092;SDS011;35974;47.752;10.290;2022-12-13T16:32:41;17.88;;;9.95;;
50092;SDS011;35974;47.752;10.290;2022-12-13T16:40:59;25.90;;;11.80;;
50092;SDS011;35974;47.752;10.290;2022-12-13T16:49:33;17.65;;;9.45;;
50092;SDS011;35974;47.752;10.290;2022-12-13T16:52:01;17.30;;;9.15;;
50092;SDS011;35974;47.752;10.290;2022-12-13T16:54:38;17.52;;;9.27;;
50092;SDS011;35974;47.752;10.290;2022-12-13T16:57:20;16.70;;;9.52;;
50092;SDS011;35974;47.752;10.290;2022-12-13T17:02:24;23.23;;;9.15;;
50092;SDS011;35974;47.752;10.290;2022-12-13T17:04:52;18.85;;;8.82;;
50092;SDS011;35974;47.752;10.290;2022-12-13T17:07:19;15.88;;;8.90;;
50092;SDS011;35974;47.752;10.290;2022-12-13T17:10:02;17.35;;;8.88;;
50092;SDS011;35974;47.752;10.290;2022-12-13T17:15:15;17.02;;;8.98;;
50092;SDS011;35974;47.752;10.290;2022-12-13T17:17:43;19.80;;;10.27;;
50092;SDS011;35974;47.752;10.290;2022-12-13T17:23:34;18.40;;;9.10;;
50092;SDS011;35974;47.752;10.290;2022-12-13T17:26:04;17.63;;;8.85;;
50092;SDS011;35974;47.752;10.290;2022-12-13T17:28:32;19.48;;;10.45;;
50092;SDS011;35974;47.752;10.290;2022-12-13T17:31:04;16.02;;;8.90;;
50092;SDS011;35974;47.752;10.290;2022-12-13T17:33:49;17.13;;;8.38;;
50092;SDS011;35974;47.752;10.290;2022-12-13T17:41:49;18.02;;;9.23;;
50092;SDS011;35974;47.752;10.290;2022-12-13T17:44:21;17.63;;;9.35;;
50092;SDS011;35974;47.752;10.290;2022-12-13T17:46:48;15.93;;;8.90;;
50092;SDS011;35974;47.752;10.290;2022-12-13T17:49:20;15.60;;;9.82;;
50092;SDS011;35974;47.752;10.290;2022-12-13T17:51:47;17.38;;;8.77;;
50092;SDS011;35974;47.752;10.290;2022-12-13T17:54:17;15.80;;;8.40;;
50092;SDS011;35974;47.752;10.290;2022-12-13T17:56:43;17.98;;;9.25;;
50092;SDS011;35974;47.752;10.290;2022-12-13T17:59:11;19.00;;;10.18;;
50092;SDS011;35974;47.752;10.290;2022-12-13T18:01:38;18.50;;;8.90;;
50092;SDS011;35974;47.752;10.290;2022-12-13T18:04:04;14.68;;;8.32;;
50092;SDS011;35974;47.752;10.290;2022-12-13T18:06:37;18.55;;;8.63;;
50092;SDS011;35974;47.752;10.290;2022-12-13T18:09:05;17.50;;;8.60;;
50092;SDS011;35974;47.752;10.290;2022-12-13T18:11:41;15.52;;;8.35;;
50092;SDS011;35974;47.752;10.290;2022-12-13T18:17:06;16.67;;;8.55;;
50092;SDS011;35974;47.752;10.290;2022-12-13T18:19:33;19.85;;;8.82;;